sensor_id;sensor_type;location;lat;lon;timestamp;P1;durP1;ratioP1;P2;durP2;ratioP2
39740;SDS011;25426;53.478;10.190;2023-05-02T00:00:31;17.05;;;14.65;;
39740;SDS011;25426;53.478;10.190;2023-05-02T00:03:03;19.02;;;15.40;;
39740;SDS011;25426;53.478;10.190;2023-05-02T00:05:35;17.15;;;15.35;;
39740;SDS011;25426;53.478;10.190;2023-05-02T00:08:06;17.53;;;13.53;;
39740;SDS011;25426;53.478;10.190;2023-05-02T00:10:36;16.38;;;14.63;;
39740;SDS011;25426;53.478;10.190;2023-05-02T00:13:07;17.75;;;15.52;;
39740;SDS011;25426;53.478;10.190;2023-05-02T00:15:39;18.77;;;16.80;;
39740;SDS011;25426;53.478;10.190;2023-05-02T00:18:10;18.85;;;16.85;;
39740;SDS011;25426;53.478;10.190;2023-05-02T00:20:41;22.95;;;19.67;;
39740;SDS011;25426;53.478;10.190;2023-05-02T00:23:12;24.67;;;21.87;;
39740;SDS011;25426;53.478;10.190;2023-05-02T00:25:46;27.27;;;22.63;;
39740;SDS011;25426;53.478;10.190;2023-05-02T00:28:17;27.40;;;24.00;;
39740;SDS011;25426;53.478;10.190;2023-05-02T00:30:48;29.65;;;25.85;;
39740;SDS011;25426;53.478;10.190;2023-05-02T00:33:19;30.50;;;27.40;;
39740;SDS011;25426;53.478;10.190;2023-05-02T00:35:50;29.77;;;26.88;;
39740;SDS011;25426;53.478;10.190;2023-05-02T00:38:21;29.70;;;26.60;;
39740;SDS011;25426;53.478;10.190;2023-05-02T00:40:52;31.67;;;28.23;;
39740;SDS011;25426;53.478;10.190;2023-05-02T00:43:23;31.90;;;28.58;;
39740;SDS011;25426;53.478;10.190;2023-05-02T00:45:55;31.50;;;28.25;;
39740;SDS011;25426;53.478;10.190;2023-05-02T00:48:26;30.05;;;26.90;;
39740;SDS011;25426;53.478;10.190;2023-05-02T00:50:57;30.60;;;27.50;;
39740;SDS011;25426;53.478;10.190;2023-05-02T00:53:28;29.02;;;25.95;;
39740;SDS011;25426;53.478;10.190;2023-05-02T00:55:59;28.88;;;25.88;;
39740;SDS011;25426;53.478;10.190;2023-05-02T00:58:31;30.15;;;26.95;;
39740;SDS011;25426;53.478;10.190;2023-05-02T01:01:23;28.83;;;25.80;;
39740;SDS011;25426;53.478;10.190;2023-05-02T01:11:12;29.90;;;26.80;;
39740;SDS011;25426;53.478;10.190;2023-05-02T01:13:47;30.02;;;26.88;;
39740;SDS011;25426;53.478;10.190;2023-05-02T01:16:18;28.23;;;25.27;;
39740;SDS011;25426;53.478;10.190;2023-05-02T01:18:50;31.77;;;28.40;;
39740;SDS011;25426;53.478;10.190;2023-05-02T01:21:22;30.40;;;27.27;;
39740;SDS011;25426;53.478;10.190;2023-05-02T01:27:14;32.20;;;28.80;;
39740;SDS011;25426;53.478;10.190;2023-05-02T01:30:19;30.38;;;26.73;;
39740;SDS011;25426;53.478;10.190;2023-05-02T01:32:51;31.10;;;27.65;;
39740;SDS011;25426;53.478;10.190;2023-05-02T01:35:24;30.33;;;26.67;;
39740;SDS011;25426;53.478;10.190;2023-05-02T01:37:57;28.98;;;25.90;;
39740;SDS011;25426;53.478;10.190;2023-05-02T01:40:28;27.40;;;24.40;;
39740;SDS011;25426;53.478;10.190;2023-05-02T01:43:00;27.83;;;24.83;;
39740;SDS011;25426;53.478;10.190;2023-05-02T01:45:34;27.53;;;24.67;;
39740;SDS011;25426;53.478;10.190;2023-05-02T01:48:05;25.87;;;23.10;;
39740;SDS011;25426;53.478;10.190;2023-05-02T01:50:38;26.57;;;22.73;;
39740;SDS011;25426;53.478;10.190;2023-05-02T01:53:11;25.38;;;22.67;;
39740;SDS011;25426;53.478;10.190;2023-05-02T01:55:43;25.67;;;22.85;;
39740;SDS011;25426;53.478;10.190;2023-05-02T01:58:16;25.38;;;22.38;;
39740;SDS011;25426;53.478;10.190;2023-05-02T02:00:48;21.88;;;19.63;;
39740;SDS011;25426;53.478;10.190;2023-05-02T02:03:20;21.75;;;19.45;;
39740;SDS011;25426;53.478;10.190;2023-05-02T02:05:51;20.23;;;17.58;;
39740;SDS011;25426;53.478;10.190;2023-05-02T02:08:23;18.03;;;16.13;;
39740;SDS011;25426;53.478;10.190;2023-05-02T02:10:56;18.15;;;15.85;;
39740;SDS011;25426;53.478;10.190;2023-05-02T02:13:30;17.65;;;14.40;;
39740;SDS011;25426;53.478;10.190;2023-05-02T02:16:08;18.08;;;15.77;;
39740;SDS011;25426;53.478;10.190;2023-05-02T02:18:42;18.73;;;15.10;;
39740;SDS011;25426;53.478;10.190;2023-05-02T02:21:15;16.87;;;13.93;;
39740;SDS011;25426;53.478;10.190;2023-05-02T02:23:48;17.63;;;14.75;;
39740;SDS011;25426;53.478;10.190;2023-05-02T02:26:20;15.27;;;13.23;;
39740;SDS011;25426;53.478;10.190;2023-05-02T02:28:51;15.63;;;13.38;;
39740;SDS011;25426;53.478;10.190;2023-05-02T02:31:23;16.52;;;13.02;;
39740;SDS011;25426;53.478;10.190;2023-05-02T02:34:04;14.53;;;12.20;;
39740;SDS011;25426;53.478;10.190;2023-05-02T02:36:42;15.45;;;12.23;;
39740;SDS011;25426;53.478;10.190;2023-05-02T02:45:15;14.88;;;11.75;;
39740;SDS011;25426;53.478;10.190;2023-05-02T02:51:21;16.50;;;13.20;;
39740;SDS011;25426;53.478;10.190;2023-05-02T02:54:07;15.82;;;13.38;;
39740;SDS011;25426;53.478;10.190;2023-05-02T02:57:06;15.35;;;12.43;;
39740;SDS011;25426;53.478;10.190;2023-05-02T02:59:58;15.82;;;12.38;;
39740;SDS011;25426;53.478;10.190;2023-05-02T03:02:38;11.82;;;9.57;;
39740;SDS011;25426;53.478;10.190;2023-05-02T03:05:12;10.60;;;9.20;;
39740;SDS011;25426;53.478;10.190;2023-05-02T03:07:43;9.30;;;8.38;;
39740;SDS011;25426;53.478;10.190;2023-05-02T03:10:14;7.60;;;6.50;;
39740;SDS011;25426;53.478;10.190;2023-05-02T03:12:45;7.00;;;6.30;;
39740;SDS011;25426;53.478;10.190;2023-05-02T03:18:24;8.45;;;7.65;;
39740;SDS011;25426;53.478;10.190;2023-05-02T03:20:56;9.25;;;8.35;;
39740;SDS011;25426;53.478;10.190;2023-05-02T03:23:28;9.88;;;8.05;;
39740;SDS011;25426;53.478;10.190;2023-05-02T03:25:59;13.63;;;8.17;;
39740;SDS011;25426;53.478;10.190;2023-05-02T03:28:30;13.63;;;6.95;;
39740;SDS011;25426;53.478;10.190;2023-05-02T03:31:02;16.05;;;7.15;;
39740;SDS011;25426;53.478;10.190;2023-05-02T03:33:39;13.50;;;6.40;;
39740;SDS011;25426;53.478;10.190;2023-05-02T03:36:10;14.17;;;6.20;;
39740;SDS011;25426;53.478;10.190;2023-05-02T03:38:43;12.93;;;5.32;;
39740;SDS011;25426;53.478;10.190;2023-05-02T03:41:16;14.25;;;5.13;;
39740;SDS011;25426;53.478;10.190;2023-05-02T03:43:53;13.52;;;5.63;;
39740;SDS011;25426;53.478;10.190;2023-05-02T03:46:26;15.70;;;5.77;;
39740;SDS011;25426;53.478;10.190;2023-05-02T03:48:58;16.60;;;6.28;;
39740;SDS011;25426;53.478;10.190;2023-05-02T03:51:29;17.33;;;6.70;;
39740;SDS011;25426;53.478;10.190;2023-05-02T03:54:02;19.77;;;7.25;;
39740;SDS011;25426;53.478;10.190;2023-05-02T03:56:35;22.35;;;7.22;;
39740;SDS011;25426;53.478;10.190;2023-05-02T03:59:17;22.33;;;7.23;;
39740;SDS011;25426;53.478;10.190;2023-05-02T04:01:49;20.92;;;7.18;;
39740;SDS011;25426;53.478;10.190;2023-05-02T04:04:21;25.90;;;7.70;;
39740;SDS011;25426;53.478;10.190;2023-05-02T04:06:55;24.93;;;7.67;;
39740;SDS011;25426;53.478;10.190;2023-05-02T04:09:26;20.58;;;7.82;;
39740;SDS011;25426;53.478;10.190;2023-05-02T04:12:01;22.30;;;7.90;;
39740;SDS011;25426;53.478;10.190;2023-05-02T04:14:34;20.85;;;7.18;;
39740;SDS011;25426;53.478;10.190;2023-05-02T04:17:06;19.95;;;7.25;;
39740;SDS011;25426;53.478;10.190;2023-05-02T04:19:47;21.27;;;7.10;;
39740;SDS011;25426;53.478;10.190;2023-05-02T04:22:20;23.02;;;7.15;;
39740;SDS011;25426;53.478;10.190;2023-05-02T04:24:56;20.08;;;6.78;;
39740;SDS011;25426;53.478;10.190;2023-05-02T04:27:28;22.10;;;6.70;;
39740;SDS011;25426;53.478;10.190;2023-05-02T04:30:00;21.90;;;7.67;;
39740;SDS011;25426;53.478;10.190;2023-05-02T04:32:31;18.42;;;7.30;;
39740;SDS011;25426;53.478;10.190;2023-05-02T04:35:04;21.02;;;6.68;;
39740;SDS011;25426;53.478;10.190;2023-05-02T04:37:36;16.33;;;6.83;;
39740;SDS011;25426;53.478;10.190;2023-05-02T04:40:08;22.13;;;7.10;;
39740;SDS011;25426;53.478;10.190;2023-05-02T04:42:42;22.20;;;6.70;;
39740;SDS011;25426;53.478;10.190;2023-05-02T04:45:17;21.80;;;7.63;;
39740;SDS011;25426;53.478;10.190;2023-05-02T04:47:49;19.50;;;6.75;;
39740;SDS011;25426;53.478;10.190;2023-05-02T04:50:20;18.38;;;7.07;;
39740;SDS011;25426;53.478;10.190;2023-05-02T04:52:51;19.40;;;7.22;;
39740;SDS011;25426;53.478;10.190;2023-05-02T04:55:22;20.70;;;6.72;;
39740;SDS011;25426;53.478;10.190;2023-05-02T04:57:53;17.15;;;5.90;;
39740;SDS011;25426;53.478;10.190;2023-05-02T05:00:25;12.32;;;5.20;;
39740;SDS011;25426;53.478;10.190;2023-05-02T05:02:56;13.90;;;5.13;;
39740;SDS011;25426;53.478;10.190;2023-05-02T05:05:27;15.88;;;5.45;;
39740;SDS011;25426;53.478;10.190;2023-05-02T05:07:59;16.27;;;5.70;;
39740;SDS011;25426;53.478;10.190;2023-05-02T05:10:34;14.32;;;5.00;;
39740;SDS011;25426;53.478;10.190;2023-05-02T05:13:05;18.33;;;5.63;;
39740;SDS011;25426;53.478;10.190;2023-05-02T05:15:37;15.52;;;5.30;;
39740;SDS011;25426;53.478;10.190;2023-05-02T05:18:09;16.90;;;5.60;;
39740;SDS011;25426;53.478;10.190;2023-05-02T05:20:40;21.02;;;5.70;;
39740;SDS011;25426;53.478;10.190;2023-05-02T05:23:12;15.98;;;6.13;;
39740;SDS011;25426;53.478;10.190;2023-05-02T05:25:42;14.18;;;5.85;;
39740;SDS011;25426;53.478;10.190;2023-05-02T05:28:13;17.67;;;6.50;;
39740;SDS011;25426;53.478;10.190;2023-05-02T05:30:44;17.27;;;6.03;;
39740;SDS011;25426;53.478;10.190;2023-05-02T05:33:19;17.30;;;6.65;;
39740;SDS011;25426;53.478;10.190;2023-05-02T05:35:50;17.25;;;6.25;;
39740;SDS011;25426;53.478;10.190;2023-05-02T05:38:21;19.02;;;6.38;;
39740;SDS011;25426;53.478;10.190;2023-05-02T05:40:53;20.25;;;6.60;;
39740;SDS011;25426;53.478;10.190;2023-05-02T05:43:24;16.15;;;5.97;;
39740;SDS011;25426;53.478;10.190;2023-05-02T05:45:56;17.13;;;5.88;;
39740;SDS011;25426;53.478;10.190;2023-05-02T05:48:27;19.45;;;6.18;;
39740;SDS011;25426;53.478;10.190;2023-05-02T05:51:02;20.88;;;6.60;;
39740;SDS011;25426;53.478;10.190;2023-05-02T05:53:34;20.15;;;6.05;;
39740;SDS011;25426;53.478;10.190;2023-05-02T05:56:08;19.38;;;5.72;;
39740;SDS011;25426;53.478;10.190;2023-05-02T05:58:42;16.63;;;5.60;;
39740;SDS011;25426;53.478;10.190;2023-05-02T06:01:15;17.73;;;5.47;;
39740;SDS011;25426;53.478;10.190;2023-05-02T06:03:46;16.60;;;5.50;;
39740;SDS011;25426;53.478;10.190;2023-05-02T06:06:19;14.10;;;5.13;;
39740;SDS011;25426;53.478;10.190;2023-05-02T06:08:50;11.98;;;4.50;;
39740;SDS011;25426;53.478;10.190;2023-05-02T06:11:21;13.73;;;5.00;;
39740;SDS011;25426;53.478;10.190;2023-05-02T06:13:53;12.70;;;4.85;;
39740;SDS011;25426;53.478;10.190;2023-05-02T06:16:25;15.52;;;5.05;;
39740;SDS011;25426;53.478;10.190;2023-05-02T06:18:56;12.32;;;4.72;;
39740;SDS011;25426;53.478;10.190;2023-05-02T06:21:27;16.52;;;5.38;;
39740;SDS011;25426;53.478;10.190;2023-05-02T06:23:57;18.10;;;5.63;;
39740;SDS011;25426;53.478;10.190;2023-05-02T06:26:28;17.77;;;5.50;;
39740;SDS011;25426;53.478;10.190;2023-05-02T06:28:59;14.68;;;5.45;;
39740;SDS011;25426;53.478;10.190;2023-05-02T06:31:31;16.15;;;5.25;;
39740;SDS011;25426;53.478;10.190;2023-05-02T06:34:02;15.10;;;5.03;;
39740;SDS011;25426;53.478;10.190;2023-05-02T06:36:33;16.13;;;5.67;;
39740;SDS011;25426;53.478;10.190;2023-05-02T06:39:04;15.13;;;5.22;;
39740;SDS011;25426;53.478;10.190;2023-05-02T06:41:35;17.58;;;5.57;;
39740;SDS011;25426;53.478;10.190;2023-05-02T06:44:06;15.00;;;5.57;;
39740;SDS011;25426;53.478;10.190;2023-05-02T06:46:37;12.55;;;4.45;;
39740;SDS011;25426;53.478;10.190;2023-05-02T06:49:08;13.37;;;4.40;;
39740;SDS011;25426;53.478;10.190;2023-05-02T06:51:39;15.90;;;4.38;;
39740;SDS011;25426;53.478;10.190;2023-05-02T06:54:10;10.45;;;4.15;;
39740;SDS011;25426;53.478;10.190;2023-05-02T06:56:41;9.13;;;4.47;;
39740;SDS011;25426;53.478;10.190;2023-05-02T06:59:12;10.32;;;4.28;;
39740;SDS011;25426;53.478;10.190;2023-05-02T07:01:45;14.02;;;4.82;;
39740;SDS011;25426;53.478;10.190;2023-05-02T07:04:16;11.05;;;4.30;;
39740;SDS011;25426;53.478;10.190;2023-05-02T07:06:47;11.33;;;4.57;;
39740;SDS011;25426;53.478;10.190;2023-05-02T07:09:18;12.77;;;5.22;;
39740;SDS011;25426;53.478;10.190;2023-05-02T07:11:49;12.50;;;5.25;;
39740;SDS011;25426;53.478;10.190;2023-05-02T07:14:20;11.10;;;4.93;;
39740;SDS011;25426;53.478;10.190;2023-05-02T07:16:52;9.03;;;5.03;;
39740;SDS011;25426;53.478;10.190;2023-05-02T07:19:23;16.38;;;4.70;;
39740;SDS011;25426;53.478;10.190;2023-05-02T07:21:53;9.93;;;4.35;;
39740;SDS011;25426;53.478;10.190;2023-05-02T07:24:24;10.18;;;4.70;;
39740;SDS011;25426;53.478;10.190;2023-05-02T07:26:55;8.77;;;4.10;;
39740;SDS011;25426;53.478;10.190;2023-05-02T07:29:26;11.18;;;4.85;;
39740;SDS011;25426;53.478;10.190;2023-05-02T07:31:57;12.40;;;4.30;;
39740;SDS011;25426;53.478;10.190;2023-05-02T07:34:28;11.00;;;4.80;;
39740;SDS011;25426;53.478;10.190;2023-05-02T07:36:59;9.80;;;4.35;;
39740;SDS011;25426;53.478;10.190;2023-05-02T07:39:31;9.70;;;4.03;;
39740;SDS011;25426;53.478;10.190;2023-05-02T07:42:03;7.50;;;3.87;;
39740;SDS011;25426;53.478;10.190;2023-05-02T07:44:34;9.32;;;4.18;;
39740;SDS011;25426;53.478;10.190;2023-05-02T07:47:06;8.38;;;3.95;;
39740;SDS011;25426;53.478;10.190;2023-05-02T07:49:37;9.00;;;3.70;;
39740;SDS011;25426;53.478;10.190;2023-05-02T07:52:08;9.47;;;4.10;;
39740;SDS011;25426;53.478;10.190;2023-05-02T07:54:39;8.02;;;3.13;;
39740;SDS011;25426;53.478;10.190;2023-05-02T07:57:11;8.40;;;3.43;;
39740;SDS011;25426;53.478;10.190;2023-05-02T07:59:42;6.00;;;3.10;;
39740;SDS011;25426;53.478;10.190;2023-05-02T08:02:13;5.13;;;3.08;;
39740;SDS011;25426;53.478;10.190;2023-05-02T08:04:46;5.82;;;2.90;;
39740;SDS011;25426;53.478;10.190;2023-05-02T08:07:18;6.13;;;2.60;;
39740;SDS011;25426;53.478;10.190;2023-05-02T08:09:49;5.03;;;1.85;;
39740;SDS011;25426;53.478;10.190;2023-05-02T08:12:20;7.40;;;2.60;;
39740;SDS011;25426;53.478;10.190;2023-05-02T08:14:51;4.95;;;2.40;;
39740;SDS011;25426;53.478;10.190;2023-05-02T08:17:23;6.57;;;2.40;;
39740;SDS011;25426;53.478;10.190;2023-05-02T08:19:54;5.63;;;2.45;;
39740;SDS011;25426;53.478;10.190;2023-05-02T08:22:25;7.80;;;2.90;;
39740;SDS011;25426;53.478;10.190;2023-05-02T08:24:56;7.43;;;2.60;;
39740;SDS011;25426;53.478;10.190;2023-05-02T08:27:27;5.03;;;3.00;;
39740;SDS011;25426;53.478;10.190;2023-05-02T08:29:58;9.57;;;3.50;;
39740;SDS011;25426;53.478;10.190;2023-05-02T08:32:29;7.90;;;3.13;;
39740;SDS011;25426;53.478;10.190;2023-05-02T08:35:02;7.75;;;3.15;;
39740;SDS011;25426;53.478;10.190;2023-05-02T08:37:33;7.13;;;3.10;;
39740;SDS011;25426;53.478;10.190;2023-05-02T08:40:07;11.85;;;3.25;;
39740;SDS011;25426;53.478;10.190;2023-05-02T08:42:41;6.80;;;2.70;;
39740;SDS011;25426;53.478;10.190;2023-05-02T08:45:14;8.63;;;3.00;;
39740;SDS011;25426;53.478;10.190;2023-05-02T08:47:45;8.40;;;2.77;;
39740;SDS011;25426;53.478;10.190;2023-05-02T08:50:16;6.80;;;2.58;;
39740;SDS011;25426;53.478;10.190;2023-05-02T08:52:51;8.93;;;2.70;;
39740;SDS011;25426;53.478;10.190;2023-05-02T08:55:22;6.93;;;2.80;;
39740;SDS011;25426;53.478;10.190;2023-05-02T08:57:59;9.70;;;2.92;;
39740;SDS011;25426;53.478;10.190;2023-05-02T09:00:37;8.27;;;2.60;;
39740;SDS011;25426;53.478;10.190;2023-05-02T09:06:05;8.73;;;3.08;;
39740;SDS011;25426;53.478;10.190;2023-05-02T09:08:47;7.38;;;2.63;;
39740;SDS011;25426;53.478;10.190;2023-05-02T09:11:23;8.50;;;3.05;;
39740;SDS011;25426;53.478;10.190;2023-05-02T09:13:54;6.97;;;2.80;;
39740;SDS011;25426;53.478;10.190;2023-05-02T09:16:27;9.90;;;2.90;;
39740;SDS011;25426;53.478;10.190;2023-05-02T09:19:02;6.05;;;2.55;;
39740;SDS011;25426;53.478;10.190;2023-05-02T09:21:37;7.18;;;2.97;;
39740;SDS011;25426;53.478;10.190;2023-05-02T09:24:15;7.85;;;3.08;;
39740;SDS011;25426;53.478;10.190;2023-05-02T09:27:02;7.73;;;3.00;;
39740;SDS011;25426;53.478;10.190;2023-05-02T09:29:34;8.52;;;2.95;;
39740;SDS011;25426;53.478;10.190;2023-05-02T09:32:09;7.38;;;2.90;;
39740;SDS011;25426;53.478;10.190;2023-05-02T09:34:40;6.88;;;3.10;;
39740;SDS011;25426;53.478;10.190;2023-05-02T09:37:35;9.03;;;3.17;;
39740;SDS011;25426;53.478;10.190;2023-05-02T09:40:06;7.13;;;3.13;;
39740;SDS011;25426;53.478;10.190;2023-05-02T09:42:39;6.65;;;2.80;;
39740;SDS011;25426;53.478;10.190;2023-05-02T09:45:23;6.43;;;2.75;;
39740;SDS011;25426;53.478;10.190;2023-05-02T09:48:00;5.63;;;2.50;;
39740;SDS011;25426;53.478;10.190;2023-05-02T09:50:32;9.52;;;2.90;;
39740;SDS011;25426;53.478;10.190;2023-05-02T09:53:10;7.55;;;2.53;;
39740;SDS011;25426;53.478;10.190;2023-05-02T09:55:41;6.10;;;2.22;;
39740;SDS011;25426;53.478;10.190;2023-05-02T09:58:19;6.32;;;2.30;;
39740;SDS011;25426;53.478;10.190;2023-05-02T10:00:52;4.85;;;2.20;;
39740;SDS011;25426;53.478;10.190;2023-05-02T10:03:25;4.60;;;2.08;;
39740;SDS011;25426;53.478;10.190;2023-05-02T10:06:01;4.97;;;1.98;;
39740;SDS011;25426;53.478;10.190;2023-05-02T10:08:34;5.00;;;1.98;;
39740;SDS011;25426;53.478;10.190;2023-05-02T10:11:06;5.10;;;1.98;;
39740;SDS011;25426;53.478;10.190;2023-05-02T10:13:38;3.97;;;1.67;;
39740;SDS011;25426;53.478;10.190;2023-05-02T10:16:11;4.03;;;1.30;;
39740;SDS011;25426;53.478;10.190;2023-05-02T10:18:47;3.33;;;1.25;;
39740;SDS011;25426;53.478;10.190;2023-05-02T10:21:32;2.85;;;1.35;;
39740;SDS011;25426;53.478;10.190;2023-05-02T10:24:04;3.85;;;1.30;;
39740;SDS011;25426;53.478;10.190;2023-05-02T10:26:35;3.92;;;1.63;;
39740;SDS011;25426;53.478;10.190;2023-05-02T10:29:06;5.43;;;1.70;;
39740;SDS011;25426;53.478;10.190;2023-05-02T10:31:37;3.65;;;1.70;;
39740;SDS011;25426;53.478;10.190;2023-05-02T10:34:09;4.32;;;2.05;;
39740;SDS011;25426;53.478;10.190;2023-05-02T10:36:41;2.65;;;1.40;;
39740;SDS011;25426;53.478;10.190;2023-05-02T10:39:11;3.50;;;1.77;;
39740;SDS011;25426;53.478;10.190;2023-05-02T10:41:42;5.43;;;1.97;;
39740;SDS011;25426;53.478;10.190;2023-05-02T10:44:14;5.13;;;2.00;;
39740;SDS011;25426;53.478;10.190;2023-05-02T10:46:45;5.13;;;1.92;;
39740;SDS011;25426;53.478;10.190;2023-05-02T10:49:17;4.15;;;2.10;;
39740;SDS011;25426;53.478;10.190;2023-05-02T10:51:48;4.70;;;1.90;;
39740;SDS011;25426;53.478;10.190;2023-05-02T10:54:20;5.70;;;2.17;;
39740;SDS011;25426;53.478;10.190;2023-05-02T10:59:38;4.80;;;2.00;;
39740;SDS011;25426;53.478;10.190;2023-05-02T11:05:04;4.20;;;1.90;;
39740;SDS011;25426;53.478;10.190;2023-05-02T11:07:36;4.13;;;2.00;;
39740;SDS011;25426;53.478;10.190;2023-05-02T11:12:51;5.13;;;1.90;;
39740;SDS011;25426;53.478;10.190;2023-05-02T11:18:18;4.93;;;2.00;;
39740;SDS011;25426;53.478;10.190;2023-05-02T11:20:49;3.78;;;1.80;;
39740;SDS011;25426;53.478;10.190;2023-05-02T11:23:21;4.50;;;1.98;;
39740;SDS011;25426;53.478;10.190;2023-05-02T11:25:55;6.10;;;2.13;;
39740;SDS011;25426;53.478;10.190;2023-05-02T11:34:00;4.00;;;1.98;;
39740;SDS011;25426;53.478;10.190;2023-05-02T11:36:33;4.43;;;1.75;;
39740;SDS011;25426;53.478;10.190;2023-05-02T11:39:16;4.20;;;1.70;;
39740;SDS011;25426;53.478;10.190;2023-05-02T11:41:50;7.55;;;1.95;;
39740;SDS011;25426;53.478;10.190;2023-05-02T11:44:24;5.90;;;1.87;;
39740;SDS011;25426;53.478;10.190;2023-05-02T11:46:58;4.22;;;1.80;;
39740;SDS011;25426;53.478;10.190;2023-05-02T11:49:30;4.55;;;2.10;;
39740;SDS011;25426;53.478;10.190;2023-05-02T11:52:01;5.03;;;1.80;;
39740;SDS011;25426;53.478;10.190;2023-05-02T11:54:33;5.05;;;1.75;;
39740;SDS011;25426;53.478;10.190;2023-05-02T11:57:04;5.07;;;1.87;;
39740;SDS011;25426;53.478;10.190;2023-05-02T11:59:57;9.63;;;2.40;;
39740;SDS011;25426;53.478;10.190;2023-05-02T12:02:41;4.20;;;2.10;;
39740;SDS011;25426;53.478;10.190;2023-05-02T12:05:25;6.32;;;2.58;;
39740;SDS011;25426;53.478;10.190;2023-05-02T12:08:04;5.25;;;1.98;;
39740;SDS011;25426;53.478;10.190;2023-05-02T12:10:35;6.32;;;2.17;;
39740;SDS011;25426;53.478;10.190;2023-05-02T12:13:07;6.75;;;2.15;;
39740;SDS011;25426;53.478;10.190;2023-05-02T12:15:38;5.40;;;1.90;;
39740;SDS011;25426;53.478;10.190;2023-05-02T12:18:09;4.95;;;2.00;;
39740;SDS011;25426;53.478;10.190;2023-05-02T12:20:42;5.25;;;1.85;;
39740;SDS011;25426;53.478;10.190;2023-05-02T12:23:14;4.45;;;1.67;;
39740;SDS011;25426;53.478;10.190;2023-05-02T12:25:45;4.60;;;1.67;;
39740;SDS011;25426;53.478;10.190;2023-05-02T12:28:19;3.58;;;1.10;;
39740;SDS011;25426;53.478;10.190;2023-05-02T12:30:55;4.03;;;1.70;;
39740;SDS011;25426;53.478;10.190;2023-05-02T12:33:26;6.10;;;4.10;;
39740;SDS011;25426;53.478;10.190;2023-05-02T12:36:04;3.35;;;1.30;;
39740;SDS011;25426;53.478;10.190;2023-05-02T12:38:37;3.47;;;2.00;;
39740;SDS011;25426;53.478;10.190;2023-05-02T12:41:08;2.97;;;1.20;;
39740;SDS011;25426;53.478;10.190;2023-05-02T12:43:44;2.47;;;1.30;;
39740;SDS011;25426;53.478;10.190;2023-05-02T12:46:26;2.95;;;1.35;;
39740;SDS011;25426;53.478;10.190;2023-05-02T12:49:04;6.15;;;1.98;;
39740;SDS011;25426;53.478;10.190;2023-05-02T12:51:40;4.00;;;1.85;;
39740;SDS011;25426;53.478;10.190;2023-05-02T12:54:18;6.23;;;1.87;;
39740;SDS011;25426;53.478;10.190;2023-05-02T12:56:53;5.73;;;1.90;;
39740;SDS011;25426;53.478;10.190;2023-05-02T12:59:28;6.15;;;2.05;;
39740;SDS011;25426;53.478;10.190;2023-05-02T13:02:03;5.93;;;2.10;;
39740;SDS011;25426;53.478;10.190;2023-05-02T13:04:35;6.07;;;2.95;;
39740;SDS011;25426;53.478;10.190;2023-05-02T13:07:08;5.30;;;2.13;;
39740;SDS011;25426;53.478;10.190;2023-05-02T13:09:40;8.32;;;2.85;;
39740;SDS011;25426;53.478;10.190;2023-05-02T13:12:14;5.72;;;3.83;;
39740;SDS011;25426;53.478;10.190;2023-05-02T13:14:45;6.78;;;2.38;;
39740;SDS011;25426;53.478;10.190;2023-05-02T13:17:25;5.50;;;1.90;;
39740;SDS011;25426;53.478;10.190;2023-05-02T13:19:56;5.38;;;2.22;;
39740;SDS011;25426;53.478;10.190;2023-05-02T13:22:27;6.95;;;2.10;;
39740;SDS011;25426;53.478;10.190;2023-05-02T13:24:58;5.17;;;1.90;;
39740;SDS011;25426;53.478;10.190;2023-05-02T13:27:30;4.40;;;1.70;;
39740;SDS011;25426;53.478;10.190;2023-05-02T13:30:03;3.77;;;1.83;;
39740;SDS011;25426;53.478;10.190;2023-05-02T13:32:35;4.50;;;1.92;;
39740;SDS011;25426;53.478;10.190;2023-05-02T13:35:06;4.32;;;1.65;;
39740;SDS011;25426;53.478;10.190;2023-05-02T13:37:42;4.25;;;1.92;;
39740;SDS011;25426;53.478;10.190;2023-05-02T13:40:13;5.63;;;2.00;;
39740;SDS011;25426;53.478;10.190;2023-05-02T13:42:44;4.80;;;1.95;;
39740;SDS011;25426;53.478;10.190;2023-05-02T13:45:15;4.15;;;1.98;;
39740;SDS011;25426;53.478;10.190;2023-05-02T13:47:46;4.20;;;1.80;;
39740;SDS011;25426;53.478;10.190;2023-05-02T13:50:17;7.00;;;2.22;;
39740;SDS011;25426;53.478;10.190;2023-05-02T13:52:48;5.22;;;2.42;;
39740;SDS011;25426;53.478;10.190;2023-05-02T13:55:19;6.30;;;1.90;;
39740;SDS011;25426;53.478;10.190;2023-05-02T13:57:50;4.38;;;2.00;;
39740;SDS011;25426;53.478;10.190;2023-05-02T14:00:21;4.13;;;1.80;;
39740;SDS011;25426;53.478;10.190;2023-05-02T14:02:52;5.20;;;2.05;;
39740;SDS011;25426;53.478;10.190;2023-05-02T14:05:23;6.45;;;2.25;;
39740;SDS011;25426;53.478;10.190;2023-05-02T14:07:54;9.48;;;2.80;;
39740;SDS011;25426;53.478;10.190;2023-05-02T14:10:25;12.35;;;4.45;;
39740;SDS011;25426;53.478;10.190;2023-05-02T14:12:56;7.03;;;2.80;;
39740;SDS011;25426;53.478;10.190;2023-05-02T14:15:27;16.60;;;5.18;;
39740;SDS011;25426;53.478;10.190;2023-05-02T14:17:58;9.50;;;3.60;;
39740;SDS011;25426;53.478;10.190;2023-05-02T14:20:29;7.53;;;2.70;;
39740;SDS011;25426;53.478;10.190;2023-05-02T14:22:59;6.50;;;2.25;;
39740;SDS011;25426;53.478;10.190;2023-05-02T14:25:30;7.22;;;4.50;;
39740;SDS011;25426;53.478;10.190;2023-05-02T14:28:02;8.65;;;6.20;;
39740;SDS011;25426;53.478;10.190;2023-05-02T14:30:33;6.85;;;3.95;;
39740;SDS011;25426;53.478;10.190;2023-05-02T14:33:04;6.88;;;3.30;;
39740;SDS011;25426;53.478;10.190;2023-05-02T14:35:35;7.37;;;4.63;;
39740;SDS011;25426;53.478;10.190;2023-05-02T14:38:06;7.40;;;3.55;;
39740;SDS011;25426;53.478;10.190;2023-05-02T14:40:37;6.35;;;2.45;;
39740;SDS011;25426;53.478;10.190;2023-05-02T14:43:08;6.53;;;2.30;;
39740;SDS011;25426;53.478;10.190;2023-05-02T14:45:40;9.95;;;2.40;;
39740;SDS011;25426;53.478;10.190;2023-05-02T14:48:11;5.60;;;2.10;;
39740;SDS011;25426;53.478;10.190;2023-05-02T14:50:46;5.00;;;2.90;;
39740;SDS011;25426;53.478;10.190;2023-05-02T14:53:17;5.03;;;2.20;;
39740;SDS011;25426;53.478;10.190;2023-05-02T14:55:49;5.60;;;2.08;;
39740;SDS011;25426;53.478;10.190;2023-05-02T14:58:20;5.45;;;2.25;;
39740;SDS011;25426;53.478;10.190;2023-05-02T15:00:51;6.93;;;2.10;;
39740;SDS011;25426;53.478;10.190;2023-05-02T15:03:22;5.70;;;2.00;;
39740;SDS011;25426;53.478;10.190;2023-05-02T15:05:53;8.90;;;2.53;;
39740;SDS011;25426;53.478;10.190;2023-05-02T15:08:25;5.90;;;2.08;;
39740;SDS011;25426;53.478;10.190;2023-05-02T15:10:56;4.28;;;2.00;;
39740;SDS011;25426;53.478;10.190;2023-05-02T15:13:27;5.50;;;2.00;;
39740;SDS011;25426;53.478;10.190;2023-05-02T15:15:58;5.45;;;2.28;;
39740;SDS011;25426;53.478;10.190;2023-05-02T15:18:29;4.47;;;2.42;;
39740;SDS011;25426;53.478;10.190;2023-05-02T15:21:00;4.97;;;1.83;;
39740;SDS011;25426;53.478;10.190;2023-05-02T15:23:31;4.82;;;1.92;;
39740;SDS011;25426;53.478;10.190;2023-05-02T15:26:02;3.97;;;1.77;;
39740;SDS011;25426;53.478;10.190;2023-05-02T15:28:33;5.90;;;2.25;;
39740;SDS011;25426;53.478;10.190;2023-05-02T15:31:04;5.90;;;2.08;;
39740;SDS011;25426;53.478;10.190;2023-05-02T15:33:36;6.57;;;2.27;;
39740;SDS011;25426;53.478;10.190;2023-05-02T15:36:07;5.05;;;1.90;;
39740;SDS011;25426;53.478;10.190;2023-05-02T15:38:39;6.60;;;1.77;;
39740;SDS011;25426;53.478;10.190;2023-05-02T15:41:11;4.80;;;1.98;;